createdAt,value
2019-02-06T00:00:08.841Z,964.18
2019-02-06T00:01:08.820Z,964.22
2019-02-06T00:02:08.800Z,964.24
2019-02-06T00:03:08.780Z,964.25
2019-02-06T00:04:08.758Z,964.18
2019-02-06T00:05:13.974Z,964.14
2019-02-06T00:06:08.717Z,964.15
2019-02-06T00:07:08.695Z,964.21
2019-02-06T00:08:08.699Z,964.19
2019-02-06T00:09:08.654Z,964.23
2019-02-06T00:10:08.636Z,964.19
2019-02-06T00:11:08.611Z,964.2
2019-02-06T00:12:08.592Z,964.19
2019-02-06T00:13:08.613Z,964.21
2019-02-06T00:14:08.575Z,964.23
2019-02-06T00:15:08.529Z,964.23
2019-02-06T00:16:08.525Z,964.15
2019-02-06T00:17:08.509Z,964.17
2019-02-06T00:18:08.467Z,964.12
2019-02-06T00:19:08.444Z,964.09
2019-02-06T00:20:08.423Z,964.09
2019-02-06T00:21:08.402Z,964.11
2019-02-06T00:22:08.380Z,964.09
2019-02-06T00:23:08.362Z,964.03
2019-02-06T00:24:08.344Z,964.01
2019-02-06T00:25:08.319Z,963.97
2019-02-06T00:26:08.299Z,963.96
2019-02-06T00:27:08.275Z,963.97
2019-02-06T00:28:08.254Z,963.99
2019-02-06T00:29:08.232Z,963.99
2019-02-06T00:30:08.211Z,963.94
2019-02-06T00:31:08.190Z,963.95
2019-02-06T00:32:08.173Z,963.97
2019-02-06T00:33:08.148Z,963.96
2019-02-06T00:34:08.129Z,963.97
2019-02-06T00:35:08.106Z,963.97
2019-02-06T00:36:08.084Z,963.98
2019-02-06T00:37:08.062Z,964.01
2019-02-06T00:38:08.043Z,963.98
2019-02-06T00:39:08.021Z,963.99
2019-02-06T00:40:08.000Z,964.01
2019-02-06T00:41:07.978Z,964
2019-02-06T00:42:07.957Z,964
2019-02-06T00:43:07.935Z,963.97
2019-02-06T00:44:09.143Z,964.02
2019-02-06T00:45:07.895Z,964.01
2019-02-06T00:46:07.872Z,964.02
2019-02-06T00:47:07.853Z,963.99
2019-02-06T00:48:07.829Z,964.01
2019-02-06T00:49:07.808Z,964.02
2019-02-06T00:50:07.788Z,964.06
2019-02-06T00:51:07.770Z,964.12
2019-02-06T00:52:07.745Z,964.16
2019-02-06T00:53:07.724Z,964.13
2019-02-06T00:54:07.703Z,964.12
2019-02-06T00:55:07.680Z,964.08
2019-02-06T00:56:07.659Z,964.06
2019-02-06T00:57:07.642Z,964.04
2019-02-06T00:58:07.616Z,964.05
2019-02-06T00:59:07.596Z,964.06
2019-02-06T01:00:07.574Z,964.06
2019-02-06T01:01:07.663Z,964.07
2019-02-06T01:02:07.531Z,964.12
2019-02-06T01:03:07.512Z,964.1
2019-02-06T01:04:07.489Z,964.11
2019-02-06T01:05:07.468Z,964.05
2019-02-06T01:06:07.444Z,964.07
2019-02-06T01:07:07.424Z,964.04
2019-02-06T01:08:07.405Z,964.1
2019-02-06T01:09:07.381Z,964.07
2019-02-06T01:10:07.360Z,964.09
2019-02-06T01:11:07.340Z,964.09
2019-02-06T01:12:07.318Z,964.08
2019-02-06T01:13:07.298Z,964.1
2019-02-06T01:14:07.275Z,964.13
2019-02-06T01:15:07.256Z,964.12
2019-02-06T01:16:07.232Z,964.12
2019-02-06T01:17:07.210Z,964.11
2019-02-06T01:18:07.196Z,964.13
2019-02-06T01:19:07.167Z,964.09
2019-02-06T01:20:07.146Z,964.13
2019-02-06T01:21:07.124Z,964.12
2019-02-06T01:22:07.103Z,964.1
2019-02-06T01:23:07.082Z,964.12
2019-02-06T01:24:07.060Z,964.07
2019-02-06T01:25:07.039Z,964.14
2019-02-06T01:26:07.018Z,964.12
2019-02-06T01:27:06.997Z,964.14
2019-02-06T01:28:06.974Z,964.13
2019-02-06T01:29:06.953Z,964.16
2019-02-06T01:30:06.932Z,964.19
2019-02-06T01:31:06.909Z,964.15
2019-02-06T01:32:06.887Z,964.18
2019-02-06T01:33:06.867Z,964.16
2019-02-06T01:34:06.846Z,964.17
2019-02-06T01:35:06.824Z,964.18
2019-02-06T01:36:06.802Z,964.12
2019-02-06T01:37:06.782Z,964.1
2019-02-06T01:38:06.760Z,964.08
2019-02-06T01:39:06.736Z,964.07
2019-02-06T01:40:06.716Z,964.06
2019-02-06T01:41:06.694Z,964.07
2019-02-06T01:42:06.672Z,964.04
2019-02-06T01:43:06.651Z,964.02
2019-02-06T01:44:06.644Z,964.06
2019-02-06T01:45:06.608Z,964.05
2019-02-06T01:46:06.586Z,964.04
2019-02-06T01:47:06.566Z,964.06
2019-02-06T01:48:06.545Z,964.06
2019-02-06T01:49:06.522Z,964.08
2019-02-06T01:50:06.505Z,964.03
2019-02-06T01:51:06.480Z,964.05
2019-02-06T01:52:06.459Z,964.02
2019-02-06T01:53:06.435Z,964.02
2019-02-06T01:54:06.415Z,964.02
2019-02-06T01:55:06.394Z,964.03
2019-02-06T01:56:06.372Z,964
2019-02-06T01:57:06.350Z,963.96
2019-02-06T01:58:06.329Z,963.94
2019-02-06T01:59:06.308Z,963.92
2019-02-06T02:00:06.286Z,963.87
2019-02-06T02:01:06.265Z,963.83
2019-02-06T02:02:06.243Z,963.87
2019-02-06T02:03:06.292Z,963.85
2019-02-06T02:04:06.201Z,963.85
2019-02-06T02:05:06.181Z,963.81
2019-02-06T02:06:06.157Z,963.78
2019-02-06T02:07:06.137Z,963.78
2019-02-06T02:08:06.114Z,963.74
2019-02-06T02:09:06.092Z,963.75
2019-02-06T02:10:06.072Z,963.76
2019-02-06T02:11:06.052Z,963.72
2019-02-06T02:12:06.034Z,963.73
2019-02-06T02:13:06.007Z,963.71
2019-02-06T02:14:05.986Z,963.7
2019-02-06T02:15:05.963Z,963.68
2019-02-06T02:16:05.943Z,963.66
2019-02-06T02:17:05.921Z,963.63
2019-02-06T02:18:05.900Z,963.62
2019-02-06T02:19:05.879Z,963.53
2019-02-06T02:20:05.859Z,963.55
2019-02-06T02:21:05.837Z,963.5
2019-02-06T02:22:05.815Z,963.55
2019-02-06T02:23:05.795Z,963.52
2019-02-06T02:24:05.771Z,963.5
2019-02-06T02:25:05.750Z,963.51
2019-02-06T02:26:05.728Z,963.48
2019-02-06T02:27:05.709Z,963.48
2019-02-06T02:28:05.685Z,963.47
2019-02-06T02:29:05.665Z,963.47
2019-02-06T02:30:05.645Z,963.44
2019-02-06T02:31:05.622Z,963.38
2019-02-06T02:32:05.602Z,963.37
2019-02-06T02:33:05.580Z,963.38
2019-02-06T02:34:05.557Z,963.36
2019-02-06T02:35:05.536Z,963.37
2019-02-06T02:36:14.793Z,963.37
2019-02-06T02:37:05.495Z,963.36
2019-02-06T02:38:05.472Z,963.31
2019-02-06T02:39:05.451Z,963.36
2019-02-06T02:40:05.430Z,963.36
2019-02-06T02:41:05.417Z,963.39
2019-02-06T02:42:05.386Z,963.39
2019-02-06T02:43:05.364Z,963.41
2019-02-06T02:44:05.344Z,963.41
2019-02-06T02:45:05.323Z,963.46
2019-02-06T02:46:05.302Z,963.41
2019-02-06T02:47:05.284Z,963.39
2019-02-06T02:48:05.258Z,963.46
2019-02-06T02:49:05.238Z,963.39
2019-02-06T02:50:05.216Z,963.42
2019-02-06T02:51:05.194Z,963.44
2019-02-06T02:52:05.171Z,963.45
2019-02-06T02:53:05.151Z,963.47
2019-02-06T02:54:05.129Z,963.46
2019-02-06T02:55:05.111Z,963.49
2019-02-06T02:56:05.088Z,963.47
2019-02-06T02:57:05.066Z,963.48
2019-02-06T02:58:05.044Z,963.48
2019-02-06T02:59:05.022Z,963.46
2019-02-06T03:00:05.001Z,963.43
2019-02-06T03:01:04.979Z,963.43
2019-02-06T03:02:04.959Z,963.44
2019-02-06T03:03:04.935Z,963.42
2019-02-06T03:04:04.915Z,963.41
2019-02-06T03:05:04.894Z,963.4
2019-02-06T03:06:04.871Z,963.35
2019-02-06T03:07:04.851Z,963.37
2019-02-06T03:08:04.832Z,963.32
2019-02-06T03:09:04.808Z,963.33
2019-02-06T03:10:04.786Z,963.34
2019-02-06T03:11:04.764Z,963.35
2019-02-06T03:12:04.746Z,963.4
2019-02-06T03:13:04.723Z,963.36
2019-02-06T03:14:04.701Z,963.33
2019-02-06T03:15:04.681Z,963.35
2019-02-06T03:16:04.659Z,963.41
2019-02-06T03:17:04.639Z,963.4
2019-02-06T03:18:04.616Z,963.35
2019-02-06T03:19:04.596Z,963.38
2019-02-06T03:20:04.578Z,963.42
2019-02-06T03:21:04.554Z,963.38
2019-02-06T03:22:04.534Z,963.37
2019-02-06T03:23:04.513Z,963.4
2019-02-06T03:24:04.494Z,963.4
2019-02-06T03:25:04.470Z,963.42
2019-02-06T03:26:04.451Z,963.41
2019-02-06T03:27:04.430Z,963.45
2019-02-06T03:28:04.409Z,963.41
2019-02-06T03:29:04.388Z,963.41
2019-02-06T03:30:04.368Z,963.46
2019-02-06T03:31:04.353Z,963.46
2019-02-06T03:32:04.328Z,963.47
2019-02-06T03:33:04.307Z,963.52
2019-02-06T03:34:05.059Z,963.52
2019-02-06T03:35:04.267Z,963.52
2019-02-06T03:36:04.244Z,963.56
2019-02-06T03:37:04.222Z,963.54
2019-02-06T03:38:04.202Z,963.57
2019-02-06T03:39:04.183Z,963.56
2019-02-06T03:40:04.162Z,963.52
2019-02-06T03:41:04.148Z,963.54
2019-02-06T03:42:04.122Z,963.56
2019-02-06T03:43:04.103Z,963.54
2019-02-06T03:44:04.080Z,963.54
2019-02-06T03:45:04.059Z,963.56
2019-02-06T03:46:04.042Z,963.51
2019-02-06T03:47:04.019Z,963.44
2019-02-06T03:48:03.999Z,963.39
2019-02-06T03:49:03.979Z,963.4
2019-02-06T03:50:03.958Z,963.36
2019-02-06T03:51:03.939Z,963.36
2019-02-06T03:52:03.919Z,963.39
2019-02-06T03:53:03.898Z,963.3
2019-02-06T03:54:03.933Z,963.36
2019-02-06T03:55:03.860Z,963.35
2019-02-06T03:56:03.837Z,963.31
2019-02-06T03:57:03.919Z,963.31
2019-02-06T03:58:03.797Z,963.31
2019-02-06T03:59:03.778Z,963.3
2019-02-06T04:00:03.758Z,963.28
2019-02-06T04:01:03.738Z,963.3
2019-02-06T04:02:03.718Z,963.28
2019-02-06T04:03:03.696Z,963.23
2019-02-06T04:04:03.677Z,963.3
2019-02-06T04:05:03.666Z,963.27
2019-02-06T04:06:03.639Z,963.31
2019-02-06T04:07:03.621Z,963.35
2019-02-06T04:08:03.600Z,963.31
2019-02-06T04:09:03.576Z,963.3
2019-02-06T04:10:03.559Z,963.3
2019-02-06T04:11:03.541Z,963.27
2019-02-06T04:12:03.518Z,963.26
2019-02-06T04:13:03.498Z,963.24
2019-02-06T04:14:03.480Z,963.27
2019-02-06T04:15:03.459Z,963.23
2019-02-06T04:16:03.485Z,963.3
2019-02-06T04:17:03.524Z,963.29
2019-02-06T04:18:03.399Z,963.27
2019-02-06T04:19:03.383Z,963.25
2019-02-06T04:20:03.362Z,963.28
2019-02-06T04:21:03.348Z,963.23
2019-02-06T04:22:03.320Z,963.24
2019-02-06T04:23:03.301Z,963.24
2019-02-06T04:24:03.283Z,963.27
2019-02-06T04:25:03.262Z,963.24
2019-02-06T04:26:03.242Z,963.25
2019-02-06T04:27:03.223Z,963.22
2019-02-06T04:28:03.203Z,963.2
2019-02-06T04:29:03.182Z,963.21
2019-02-06T04:30:03.178Z,963.26
2019-02-06T04:31:03.145Z,963.24
2019-02-06T04:32:03.135Z,963.29
2019-02-06T04:33:03.105Z,963.24
2019-02-06T04:34:03.084Z,963.31
2019-02-06T04:35:03.064Z,963.28
2019-02-06T04:36:03.044Z,963.25
2019-02-06T04:37:06.416Z,963.22
2019-02-06T04:38:03.006Z,963.25
2019-02-06T04:39:02.987Z,963.23
2019-02-06T04:40:02.967Z,963.19
2019-02-06T04:41:02.947Z,963.26
2019-02-06T04:42:02.927Z,963.23
2019-02-06T04:43:02.908Z,963.25
2019-02-06T04:44:02.888Z,963.24
2019-02-06T04:45:02.868Z,963.22
2019-02-06T04:46:02.848Z,963.19
2019-02-06T04:47:02.829Z,963.17
2019-02-06T04:48:02.825Z,963.2
2019-02-06T04:49:02.792Z,963.19
2019-02-06T04:50:02.772Z,963.27
2019-02-06T04:51:02.752Z,963.2
2019-02-06T04:52:02.731Z,963.27
2019-02-06T04:53:02.711Z,963.21
2019-02-06T04:54:02.691Z,963.24
2019-02-06T04:55:02.672Z,963.26
2019-02-06T04:56:02.654Z,963.26
2019-02-06T04:57:02.632Z,963.23
2019-02-06T04:58:02.613Z,963.27
2019-02-06T04:59:02.594Z,963.22
2019-02-06T05:00:02.580Z,963.23
2019-02-06T05:01:02.554Z,963.18
2019-02-06T05:02:02.537Z,963.17
2019-02-06T05:03:02.514Z,963.16
2019-02-06T05:04:02.495Z,963.12
2019-02-06T05:05:02.475Z,963.12
2019-02-06T05:06:02.456Z,963.14
2019-02-06T05:07:02.444Z,963.08
2019-02-06T05:08:02.415Z,963.08
2019-02-06T05:09:02.398Z,963.05
2019-02-06T05:10:02.376Z,963.07
2019-02-06T05:11:02.357Z,963.06
2019-02-06T05:12:02.335Z,963.06
2019-02-06T05:13:02.317Z,963.06
2019-02-06T05:14:02.298Z,963.07
2019-02-06T05:15:02.282Z,963.04
2019-02-06T05:16:02.263Z,963.04
2019-02-06T05:17:02.236Z,963.02
2019-02-06T05:18:02.217Z,963
2019-02-06T05:19:02.199Z,963.05
2019-02-06T05:20:02.178Z,963.03
2019-02-06T05:21:02.157Z,963.08
2019-02-06T05:22:02.138Z,963.08
2019-02-06T05:23:02.117Z,963.09
2019-02-06T05:24:02.097Z,963.11
2019-02-06T05:25:02.084Z,963.06
2019-02-06T05:26:02.061Z,963.06
2019-02-06T05:27:02.039Z,963.08
2019-02-06T05:28:02.019Z,963.08
2019-02-06T05:29:01.999Z,963.07
2019-02-06T05:30:01.991Z,963.09
2019-02-06T05:31:01.959Z,963.07
2019-02-06T05:32:01.979Z,963.03
2019-02-06T05:33:01.918Z,963.05
2019-02-06T05:34:01.899Z,963.07
2019-02-06T05:35:01.879Z,963.04
2019-02-06T05:36:01.859Z,963.03
2019-02-06T05:37:01.842Z,963.07
2019-02-06T05:38:01.821Z,963.02
2019-02-06T05:39:01.798Z,963.02
2019-02-06T05:40:01.782Z,963.06
2019-02-06T05:41:01.759Z,963.07
2019-02-06T05:42:01.738Z,963.02
2019-02-06T05:43:01.718Z,963.03
2019-02-06T05:44:01.696Z,963
2019-02-06T05:45:01.678Z,963.02
2019-02-06T05:46:01.704Z,963.06
2019-02-06T05:47:01.636Z,963.04
2019-02-06T05:48:01.618Z,962.99
2019-02-06T05:49:01.599Z,963.02
2019-02-06T05:50:01.604Z,962.98
2019-02-06T05:51:01.556Z,963
2019-02-06T05:52:01.537Z,963
2019-02-06T05:53:01.519Z,962.97
2019-02-06T05:54:01.496Z,962.97
2019-02-06T05:55:04.340Z,963.02
2019-02-06T05:56:01.482Z,962.95
2019-02-06T05:57:01.437Z,962.99
2019-02-06T05:58:01.416Z,963
2019-02-06T05:59:01.395Z,962.99
2019-02-06T06:00:01.596Z,963.04
2019-02-06T06:01:01.356Z,963.02
2019-02-06T06:02:01.335Z,963.02
2019-02-06T06:03:01.315Z,963.07
2019-02-06T06:04:01.295Z,963.07
2019-02-06T06:05:01.279Z,963.09
2019-02-06T06:06:01.254Z,963.08
2019-02-06T06:07:01.234Z,963.11
2019-02-06T06:08:01.220Z,963.12
2019-02-06T06:09:01.195Z,963.12
2019-02-06T06:10:01.183Z,963.11
2019-02-06T06:11:01.156Z,963.09
2019-02-06T06:12:01.135Z,963.12
2019-02-06T06:13:01.117Z,963.09
2019-02-06T06:14:01.119Z,963.11
2019-02-06T06:15:01.075Z,963.13
2019-02-06T06:16:01.052Z,963.15
2019-02-06T06:17:01.031Z,963.16
2019-02-06T06:18:01.014Z,963.17
2019-02-06T06:19:01.035Z,963.15
2019-02-06T06:20:00.970Z,963.09
2019-02-06T06:21:00.956Z,963.16
2019-02-06T06:22:00.930Z,963.1
2019-02-06T06:23:00.910Z,963.15
2019-02-06T06:24:00.890Z,963.17
2019-02-06T06:25:00.992Z,963.19
2019-02-06T06:26:00.917Z,963.21
2019-02-06T06:27:00.829Z,963.18
2019-02-06T06:28:00.810Z,963.23
2019-02-06T06:29:00.790Z,963.25
2019-02-06T06:30:00.769Z,963.22
2019-02-06T06:31:00.750Z,963.22
2019-02-06T06:32:00.736Z,963.14
2019-02-06T06:33:00.711Z,963.19
2019-02-06T06:34:00.689Z,963.27
2019-02-06T06:35:00.721Z,963.21
2019-02-06T06:36:00.650Z,963.21
2019-02-06T06:37:00.629Z,963.23
2019-02-06T06:38:01.688Z,963.24
2019-02-06T06:39:00.601Z,963.22
2019-02-06T06:40:00.569Z,963.28
2019-02-06T06:41:00.550Z,963.3
2019-02-06T06:42:00.532Z,963.26
2019-02-06T06:43:00.510Z,963.3
2019-02-06T06:44:00.489Z,963.3
2019-02-06T06:45:00.470Z,963.24
2019-02-06T06:46:00.451Z,963.29
2019-02-06T06:47:00.429Z,963.28
2019-02-06T06:48:00.408Z,963.29
2019-02-06T06:49:00.439Z,963.32
2019-02-06T06:50:00.376Z,963.35
2019-02-06T06:51:00.350Z,963.41
2019-02-06T06:52:00.329Z,963.39
2019-02-06T06:53:00.309Z,963.38
2019-02-06T06:54:00.289Z,963.38
2019-02-06T06:55:00.389Z,963.37
2019-02-06T06:56:00.263Z,963.36
2019-02-06T06:57:00.229Z,963.39
2019-02-06T06:58:00.209Z,963.34
2019-02-06T06:59:00.190Z,963.38
2019-02-06T07:00:00.317Z,963.4
2019-02-06T07:01:00.150Z,963.4
2019-02-06T07:02:00.132Z,963.43
2019-02-06T07:03:00.119Z,963.39
2019-02-06T07:04:00.091Z,963.39
2019-02-06T07:05:00.320Z,963.39
2019-02-06T07:06:00.051Z,963.39
2019-02-06T07:07:00.034Z,963.38
2019-02-06T07:08:09.024Z,963.34
2019-02-06T07:08:59.992Z,963.3
2019-02-06T07:09:59.975Z,963.31
2019-02-06T07:10:59.956Z,963.31
2019-02-06T07:11:59.936Z,963.34
2019-02-06T07:12:59.913Z,963.3
2019-02-06T07:13:59.895Z,963.35
2019-02-06T07:14:59.873Z,963.27
2019-02-06T07:16:00.392Z,963.29
2019-02-06T07:16:59.835Z,963.26
2019-02-06T07:17:59.818Z,963.25
2019-02-06T07:18:59.794Z,963.31
2019-02-06T07:19:59.776Z,963.3
2019-02-06T07:21:01.533Z,963.29
2019-02-06T07:21:59.734Z,963.29
2019-02-06T07:22:59.716Z,963.3
2019-02-06T07:23:59.697Z,963.31
2019-02-06T07:24:59.677Z,963.28
2019-02-06T07:25:59.657Z,963.26
2019-02-06T07:26:59.639Z,963.25
2019-02-06T07:27:59.619Z,963.27
2019-02-06T07:28:59.599Z,963.25
2019-02-06T07:29:59.581Z,963.26
2019-02-06T07:30:59.561Z,963.28
2019-02-06T07:31:59.541Z,963.28
2019-02-06T07:32:59.521Z,963.26
2019-02-06T07:33:59.503Z,963.25
2019-02-06T07:34:59.483Z,963.25
2019-02-06T07:35:59.462Z,963.27
2019-02-06T07:36:59.443Z,963.26
2019-02-06T07:37:59.424Z,963.28
2019-02-06T07:38:59.405Z,963.21
2019-02-06T07:39:59.383Z,963.27
2019-02-06T07:40:59.364Z,963.27
2019-02-06T07:41:59.346Z,963.24
2019-02-06T07:42:59.328Z,963.26
2019-02-06T07:43:59.307Z,963.25
2019-02-06T07:44:59.288Z,963.31
2019-02-06T07:45:59.268Z,963.3
2019-02-06T07:46:59.251Z,963.34
2019-02-06T07:47:59.229Z,963.33
2019-02-06T07:48:59.210Z,963.35
2019-02-06T07:49:59.191Z,963.35
2019-02-06T07:50:59.171Z,963.38
2019-02-06T07:51:59.151Z,963.35
2019-02-06T07:52:59.229Z,963.41
2019-02-06T07:53:59.114Z,963.41
2019-02-06T07:54:59.092Z,963.39
2019-02-06T07:55:59.078Z,963.44
2019-02-06T07:56:59.055Z,963.4
2019-02-06T07:57:59.035Z,963.39
2019-02-06T07:58:59.016Z,963.4
2019-02-06T07:59:58.997Z,963.4
2019-02-06T08:00:58.978Z,963.35
2019-02-06T08:01:58.956Z,963.33
2019-02-06T08:02:58.939Z,963.34
2019-02-06T08:03:58.919Z,963.32
2019-02-06T08:04:58.901Z,963.28
2019-02-06T08:05:58.879Z,963.3
2019-02-06T08:06:58.861Z,963.32
2019-02-06T08:07:58.842Z,963.3
2019-02-06T08:08:58.822Z,963.32
2019-02-06T08:09:58.804Z,963.24
2019-02-06T08:10:58.785Z,963.22
2019-02-06T08:11:58.766Z,963.22
2019-02-06T08:12:58.748Z,963.25
2019-02-06T08:13:58.727Z,963.19
2019-02-06T08:14:58.708Z,963.23
2019-02-06T08:15:58.690Z,963.25
2019-02-06T08:16:58.669Z,963.21
2019-02-06T08:17:58.651Z,963.2
2019-02-06T08:18:58.632Z,963.27
2019-02-06T08:19:58.612Z,963.2
2019-02-06T08:20:58.592Z,963.2
2019-02-06T08:21:58.575Z,963.24
2019-02-06T08:22:58.557Z,963.21
2019-02-06T08:23:58.536Z,963.23
2019-02-06T08:24:58.518Z,963.22
2019-02-06T08:25:58.499Z,963.18
2019-02-06T08:26:58.482Z,963.17
2019-02-06T08:27:58.462Z,963.18
2019-02-06T08:28:58.441Z,963.14
2019-02-06T08:29:58.423Z,963.18
2019-02-06T08:30:58.403Z,963.12
2019-02-06T08:31:58.390Z,963.12
2019-02-06T08:32:58.366Z,963.1
2019-02-06T08:33:58.347Z,963.11
2019-02-06T08:34:58.328Z,963.14
2019-02-06T08:35:58.311Z,963.09
2019-02-06T08:36:58.289Z,963.08
2019-02-06T08:37:58.272Z,963.03
2019-02-06T08:38:58.252Z,963.03
2019-02-06T08:39:58.234Z,963.01
2019-02-06T08:40:58.215Z,963
2019-02-06T08:41:58.196Z,963.03
2019-02-06T08:42:58.177Z,962.96
2019-02-06T08:43:58.159Z,962.96
2019-02-06T08:44:58.140Z,962.96
2019-02-06T08:45:58.120Z,962.95
2019-02-06T08:46:58.102Z,962.93
2019-02-06T08:47:58.086Z,962.94
2019-02-06T08:48:58.065Z,963.02
2019-02-06T08:49:58.046Z,962.93
2019-02-06T08:50:58.027Z,962.97
2019-02-06T08:51:58.009Z,962.95
2019-02-06T08:52:57.992Z,962.95
2019-02-06T08:53:57.973Z,962.98
2019-02-06T08:54:57.953Z,962.94
2019-02-06T08:55:57.935Z,962.94
2019-02-06T08:56:57.916Z,962.98
2019-02-06T08:57:57.897Z,962.98
2019-02-06T08:58:57.880Z,962.98
2019-02-06T08:59:57.862Z,962.94
2019-02-06T09:00:57.842Z,962.98
2019-02-06T09:01:57.824Z,962.97
2019-02-06T09:02:57.806Z,962.91
2019-02-06T09:03:57.789Z,962.93
2019-02-06T09:04:57.770Z,962.87
2019-02-06T09:05:57.754Z,962.91
2019-02-06T09:06:57.733Z,962.85
2019-02-06T09:07:57.722Z,962.8
2019-02-06T09:08:59.492Z,962.85
2019-02-06T09:09:57.678Z,962.83
2019-02-06T09:10:57.659Z,962.9
2019-02-06T09:11:57.640Z,962.86
2019-02-06T09:12:57.621Z,962.85
2019-02-06T09:13:57.605Z,962.83
2019-02-06T09:14:57.585Z,962.81
2019-02-06T09:15:57.567Z,962.89
2019-02-06T09:16:57.549Z,962.9
2019-02-06T09:17:57.530Z,962.87
2019-02-06T09:18:57.511Z,962.86
2019-02-06T09:19:57.493Z,962.85
2019-02-06T09:20:57.474Z,962.85
2019-02-06T09:21:57.458Z,962.88
2019-02-06T09:22:57.446Z,962.84
2019-02-06T09:23:57.420Z,962.87
2019-02-06T09:24:57.405Z,962.85
2019-02-06T09:25:57.644Z,962.9
2019-02-06T09:26:57.365Z,962.85
2019-02-06T09:27:57.346Z,962.93
2019-02-06T09:28:57.329Z,962.88
2019-02-06T09:29:57.310Z,962.89
2019-02-06T09:30:57.292Z,962.87
2019-02-06T09:31:59.313Z,962.91
2019-02-06T09:32:57.256Z,962.85
2019-02-06T09:33:57.237Z,962.79
2019-02-06T09:34:57.220Z,962.87
2019-02-06T09:35:57.202Z,962.89
2019-02-06T09:36:57.182Z,962.89
2019-02-06T09:37:57.165Z,962.9
2019-02-06T09:38:57.147Z,962.94
2019-02-06T09:39:57.129Z,962.91
2019-02-06T09:40:57.110Z,962.88
2019-02-06T09:41:57.091Z,962.93
2019-02-06T09:42:57.074Z,962.89
2019-02-06T09:43:57.056Z,962.91
2019-02-06T09:44:57.037Z,962.88
2019-02-06T09:45:57.233Z,962.91
2019-02-06T09:46:57.003Z,962.9
2019-02-06T09:47:56.982Z,962.91
2019-02-06T09:48:56.965Z,962.89
2019-02-06T09:49:56.947Z,962.88
2019-02-06T09:50:56.928Z,962.88
2019-02-06T09:51:56.911Z,962.9
2019-02-06T09:52:56.893Z,962.88
2019-02-06T09:53:56.875Z,962.9
2019-02-06T09:54:56.857Z,962.87
2019-02-06T09:55:56.837Z,962.88
2019-02-06T09:56:56.820Z,962.92
2019-02-06T09:57:56.802Z,962.93
2019-02-06T09:58:56.784Z,962.95
2019-02-06T09:59:56.767Z,962.9
2019-02-06T10:00:56.749Z,962.91
2019-02-06T10:01:56.731Z,962.88
2019-02-06T10:02:56.711Z,962.86
2019-02-06T10:03:56.694Z,962.87
2019-02-06T10:04:56.676Z,962.86
2019-02-06T10:05:56.659Z,962.83
2019-02-06T10:06:56.639Z,962.85
2019-02-06T10:07:56.625Z,962.86
2019-02-06T10:08:56.604Z,962.82
2019-02-06T10:09:57.977Z,962.82
2019-02-06T10:10:56.571Z,962.81
2019-02-06T10:11:56.549Z,962.75
2019-02-06T10:12:56.532Z,962.77
2019-02-06T10:13:56.513Z,962.78
2019-02-06T10:14:56.496Z,962.77
2019-02-06T10:15:56.478Z,962.75
2019-02-06T10:16:56.460Z,962.8
2019-02-06T10:17:56.441Z,962.76
2019-02-06T10:18:56.425Z,962.77
2019-02-06T10:19:56.409Z,962.8
2019-02-06T10:20:56.389Z,962.78
2019-02-06T10:21:56.370Z,962.79
2019-02-06T10:22:56.352Z,962.78
2019-02-06T10:23:56.335Z,962.76
2019-02-06T10:24:56.317Z,962.75
2019-02-06T10:25:56.300Z,962.79
2019-02-06T10:26:56.283Z,962.78
2019-02-06T10:27:56.263Z,962.76
2019-02-06T10:28:56.247Z,962.75
2019-02-06T10:29:56.227Z,962.81
2019-02-06T10:30:56.210Z,962.82
2019-02-06T10:31:56.193Z,962.79
2019-02-06T10:32:56.176Z,962.81
2019-02-06T10:33:56.159Z,962.72
2019-02-06T10:34:56.140Z,962.7
2019-02-06T10:35:56.123Z,962.77
2019-02-06T10:36:56.106Z,962.75
2019-02-06T10:37:56.088Z,962.76
2019-02-06T10:38:56.072Z,962.75
2019-02-06T10:39:58.562Z,962.71
2019-02-06T10:40:56.038Z,962.75
2019-02-06T10:41:56.021Z,962.74
2019-02-06T10:42:56.004Z,962.7
2019-02-06T10:43:55.986Z,962.74
2019-02-06T10:44:55.969Z,962.73
2019-02-06T10:45:55.954Z,962.73
2019-02-06T10:46:55.935Z,962.62
2019-02-06T10:47:55.954Z,962.62
2019-02-06T10:48:55.903Z,962.64
2019-02-06T10:49:55.885Z,962.64
2019-02-06T10:50:58.219Z,962.59
2019-02-06T10:51:55.852Z,962.6
2019-02-06T10:52:55.836Z,962.55
2019-02-06T10:53:55.818Z,962.56
2019-02-06T10:54:55.802Z,962.54
2019-02-06T10:55:55.785Z,962.59
2019-02-06T10:56:55.771Z,962.56
2019-02-06T10:57:55.752Z,962.52
2019-02-06T10:58:55.736Z,962.46
2019-02-06T10:59:55.719Z,962.48
2019-02-06T11:00:55.703Z,962.49
2019-02-06T11:01:55.686Z,962.42
2019-02-06T11:02:55.671Z,962.4
2019-02-06T11:03:55.654Z,962.35
2019-02-06T11:04:55.637Z,962.37
2019-02-06T11:05:55.622Z,962.28
2019-02-06T11:06:55.605Z,962.34
2019-02-06T11:07:55.590Z,962.28
2019-02-06T11:08:55.572Z,962.27
2019-02-06T11:09:55.560Z,962.24
2019-02-06T11:10:55.539Z,962.21
2019-02-06T11:11:55.521Z,962.15
2019-02-06T11:12:55.509Z,962.18
2019-02-06T11:13:55.491Z,962.17
2019-02-06T11:14:55.479Z,962.1
2019-02-06T11:15:55.459Z,962.06
2019-02-06T11:16:55.442Z,962.04
2019-02-06T11:17:55.425Z,962.04
2019-02-06T11:18:55.410Z,962
2019-02-06T11:19:55.393Z,961.98
2019-02-06T11:20:55.376Z,961.99
2019-02-06T11:21:55.361Z,961.94
2019-02-06T11:22:55.344Z,962.01
2019-02-06T11:23:55.328Z,961.94
2019-02-06T11:24:55.312Z,961.98
2019-02-06T11:25:55.296Z,961.9
2019-02-06T11:26:55.284Z,961.94
2019-02-06T11:27:55.262Z,961.89
2019-02-06T11:28:55.246Z,961.88
2019-02-06T11:29:55.231Z,961.87
2019-02-06T11:30:57.070Z,961.9
2019-02-06T11:31:55.253Z,961.88
2019-02-06T11:32:55.181Z,961.9
2019-02-06T11:33:55.318Z,961.9
2019-02-06T11:34:55.150Z,961.92
2019-02-06T11:35:55.133Z,961.9
2019-02-06T11:36:55.118Z,961.85
2019-02-06T11:37:55.101Z,961.86
2019-02-06T11:38:55.086Z,961.83
2019-02-06T11:39:57.753Z,961.86
2019-02-06T11:40:55.054Z,961.85
2019-02-06T11:41:55.038Z,961.77
2019-02-06T11:42:55.022Z,961.82
2019-02-06T11:43:55.006Z,961.77
2019-02-06T11:44:54.990Z,961.77
2019-02-06T11:45:54.972Z,961.75
2019-02-06T11:46:54.958Z,961.77
2019-02-06T11:47:54.942Z,961.81
2019-02-06T11:48:54.931Z,961.77
2019-02-06T11:49:54.911Z,961.85
2019-02-06T11:50:54.895Z,961.83
2019-02-06T11:51:54.879Z,961.83
2019-02-06T11:52:54.861Z,961.79
2019-02-06T11:53:54.845Z,961.82
2019-02-06T11:54:54.830Z,961.75
2019-02-06T11:55:54.812Z,961.75
2019-02-06T11:56:54.797Z,961.71
2019-02-06T11:57:54.783Z,961.73
2019-02-06T11:58:54.765Z,961.76
2019-02-06T11:59:54.749Z,961.76
2019-02-06T12:00:54.734Z,961.71
2019-02-06T12:01:54.718Z,961.75
2019-02-06T12:02:54.704Z,961.73
2019-02-06T12:03:54.686Z,961.71
2019-02-06T12:04:54.671Z,961.72
2019-02-06T12:05:54.658Z,961.7
2019-02-06T12:06:54.640Z,961.71
2019-02-06T12:07:54.623Z,961.66
2019-02-06T12:08:54.607Z,961.59
2019-02-06T12:09:54.592Z,961.6
2019-02-06T12:10:54.575Z,961.57
2019-02-06T12:11:54.559Z,961.53
2019-02-06T12:12:54.542Z,961.53
2019-02-06T12:13:54.528Z,961.51
2019-02-06T12:14:54.512Z,961.48
2019-02-06T12:15:54.497Z,961.44
2019-02-06T12:16:54.482Z,961.43
2019-02-06T12:17:54.476Z,961.4
2019-02-06T12:18:54.448Z,961.39
2019-02-06T12:19:54.433Z,961.4
2019-02-06T12:20:54.416Z,961.33
2019-02-06T12:21:54.399Z,961.36
2019-02-06T12:22:54.383Z,961.35
2019-02-06T12:23:54.368Z,961.33
2019-02-06T12:24:54.351Z,961.33
2019-02-06T12:25:54.336Z,961.24
2019-02-06T12:26:54.324Z,961.25
2019-02-06T12:27:54.304Z,961.2
2019-02-06T12:28:54.289Z,961.18
2019-02-06T12:29:54.271Z,961.17
2019-02-06T12:30:56.086Z,961.16